Time;durP1;ratioP1;P1;durP2;ratioP2;P2;SDS_P1;SDS_P2;PMS_P1;PMS_P2;Temp;Humidity;BMP_temperature;BMP_pressure;BME280_temperature;BME280_humidity;BME280_pressure;Samples;Min_cycle;Max_cycle;Signal;HPM_P1;HPM_P2
2022/09/11 00:01:06;;;;;;;2.53;1.40;;;24.60;57.50;;;;;;5061349;28;20049;-77
2022/09/11 00:03:33;;;;;;;3.78;1.70;;;24.60;57.50;;;;;;5059775;28;20105;-81
2022/09/11 00:06:09;;;;;;;3.13;1.50;;;24.80;56.80;;;;;;5053806;28;20027;-77
2022/09/11 00:08:36;;;;;;;2.67;1.60;;;24.60;57.10;;;;;;5067848;28;20039;-79
2022/09/11 00:11:06;;;;;;;3.50;1.77;;;24.60;57.10;;;;;;5072544;28;20026;-76
2022/09/11 00:13:32;;;;;;;3.30;1.75;;;24.50;57.40;;;;;;5066149;28;20020;-79
2022/09/11 00:15:58;;;;;;;3.00;1.50;;;24.40;57.30;;;;;;5074635;28;20062;-80
2022/09/11 00:18:23;;;;;;;3.45;1.73;;;24.30;57.50;;;;;;5073086;28;20111;-78
2022/09/11 00:20:55;;;;;;;3.25;1.80;;;24.30;57.50;;;;;;5075008;28;20565;-76
2022/09/11 00:23:23;;;;;;;5.43;1.70;;;24.40;57.50;;;;;;5073369;28;20032;-78
2022/09/11 00:25:49;;;;;;;2.53;1.50;;;24.60;56.90;;;;;;5066621;28;20356;-77
2022/09/11 00:28:18;;;;;;;4.10;1.80;;;24.60;57.00;;;;;;5066450;28;20592;-77
2022/09/11 00:30:45;;;;;;;6.28;1.60;;;24.60;57.10;;;;;;5073664;28;20029;-78
2022/09/11 00:33:12;;;;;;;4.25;1.88;;;24.50;57.20;;;;;;5074079;28;20421;-78
2022/09/11 00:35:39;;;;;;;3.00;1.67;;;24.40;56.90;;;;;;5067311;28;20476;-78
2022/09/11 00:38:07;;;;;;;3.03;1.60;;;24.40;57.30;;;;;;5069499;28;20070;-77
2022/09/11 00:40:42;;;;;;;2.70;1.50;;;24.50;57.00;;;;;;5070924;28;20348;-78
2022/09/11 00:43:09;;;;;;;4.70;1.60;;;24.50;56.70;;;;;;5069519;28;20442;-77
2022/09/11 00:45:34;;;;;;;4.55;1.73;;;24.60;56.70;;;;;;5055871;28;20029;-77
2022/09/11 00:48:02;;;;;;;3.00;1.60;;;24.60;56.80;;;;;;5067309;28;20429;-77
2022/09/11 00:50:30;;;;;;;3.70;1.88;;;24.60;56.90;;;;;;5075262;28;20024;-77
2022/09/11 00:53:05;;;;;;;3.75;1.80;;;24.70;56.70;;;;;;5073354;28;20035;-78
2022/09/11 00:55:34;;;;;;;3.10;1.70;;;24.70;56.50;;;;;;5059123;28;20471;-77
2022/09/11 00:58:09;;;;;;;2.90;1.60;;;24.70;56.20;;;;;;5069440;28;20426;-81
2022/09/11 01:00:38;;;;;;;3.10;1.80;;;24.60;56.40;;;;;;5062678;28;20025;-78
2022/09/11 01:03:04;;;;;;;2.55;1.70;;;24.20;57.40;;;;;;5088186;28;20047;-79
2022/09/11 01:05:33;;;;;;;4.05;1.60;;;24.20;57.30;;;;;;5075326;28;20069;-78
2022/09/11 01:08:01;;;;;;;3.03;1.63;;;24.30;57.40;;;;;;5084297;28;20028;-78
2022/09/11 01:10:55;;;;;;;2.53;1.60;;;24.30;56.90;;;;;;5060767;28;20029;-78
2022/09/11 01:13:48;;;;;;;2.50;1.50;;;24.20;57.00;;;;;;5069107;28;20050;-78
2022/09/11 01:16:32;;;;;;;3.40;1.50;;;24.00;57.20;;;;;;5065804;28;20028;-77
2022/09/11 01:19:16;;;;;;;4.55;1.52;;;23.90;57.40;;;;;;5074732;28;20036;-80
2022/09/11 01:22:17;;;;;;;2.47;1.55;;;23.90;57.70;;;;;;5094478;28;20031;-77
2022/09/11 01:24:55;;;;;;;3.75;1.50;;;24.00;57.20;;;;;;5092995;28;20039;-82
2022/09/11 01:27:34;;;;;;;2.70;1.60;;;24.10;57.10;;;;;;5086106;28;20023;-77
2022/09/11 01:30:05;;;;;;;5.22;1.75;;;24.40;56.60;;;;;;5075128;28;20064;-75
2022/09/11 01:32:36;;;;;;;3.17;1.75;;;24.40;56.90;;;;;;5079610;28;20013;-76
2022/09/11 01:35:20;;;;;;;2.88;1.60;;;24.50;56.80;;;;;;5077174;28;20028;-77
2022/09/11 01:37:46;;;;;;;3.72;1.80;;;24.60;56.40;;;;;;5080124;28;20031;-77
2022/09/11 01:40:36;;;;;;;2.75;1.67;;;24.50;56.70;;;;;;5091131;28;20020;-76
2022/09/11 01:43:07;;;;;;;4.00;1.77;;;24.40;56.80;;;;;;5080961;28;20105;-77
2022/09/11 01:45:36;;;;;;;3.67;1.90;;;24.40;56.80;;;;;;5092273;28;20019;-77
2022/09/11 01:48:02;;;;;;;3.45;1.83;;;24.40;56.90;;;;;;5075742;28;20032;-78
2022/09/11 01:50:31;;;;;;;3.33;1.80;;;24.30;57.20;;;;;;5093117;28;20444;-79
2022/09/11 01:53:02;;;;;;;2.80;1.80;;;24.10;57.40;;;;;;5090972;28;20027;-78
2022/09/11 01:55:36;;;;;;;3.42;2.03;;;23.90;57.50;;;;;;5061414;28;20025;-78
2022/09/11 01:58:07;;;;;;;3.08;1.90;;;23.70;57.90;;;;;;5075087;28;20111;-77
2022/09/11 02:00:35;;;;;;;4.05;2.00;;;23.80;57.90;;;;;;5094344;28;20031;-78
2022/09/11 02:03:10;;;;;;;3.17;1.90;;;23.80;57.90;;;;;;5076293;28;20106;-77
2022/09/11 02:05:47;;;;;;;2.83;1.65;;;23.60;58.20;;;;;;5093313;28;20028;-76
2022/09/11 02:08:23;;;;;;;3.05;1.70;;;23.50;58.10;;;;;;5075435;28;20453;-78
2022/09/11 02:10:54;;;;;;;2.90;1.80;;;23.30;58.60;;;;;;5087718;28;20390;-82
2022/09/11 02:13:36;;;;;;;2.90;1.67;;;23.40;59.00;;;;;;5073397;28;20111;-79
2022/09/11 02:16:30;;;;;;;4.65;1.80;;;23.40;58.40;;;;;;5074267;28;20428;-82
2022/09/11 02:19:00;;;;;;;5.55;1.80;;;23.40;58.30;;;;;;5012381;28;20050;-78
2022/09/11 02:21:26;;;;;;;2.42;1.52;;;23.40;58.40;;;;;;5011937;28;20037;-78
2022/09/11 02:23:54;;;;;;;2.72;1.50;;;23.50;58.50;;;;;;5019408;28;20041;-78
2022/09/11 02:26:25;;;;;;;2.80;1.65;;;23.40;58.60;;;;;;5030969;28;20067;-79
2022/09/11 02:28:52;;;;;;;2.90;1.80;;;23.30;58.60;;;;;;5030275;28;20103;-82
2022/09/11 02:31:20;;;;;;;5.38;2.03;;;23.20;58.90;;;;;;5016397;28;20063;-78
2022/09/11 02:33:47;;;;;;;5.15;1.85;;;23.00;58.90;;;;;;5014707;28;20583;-80
2022/09/11 02:36:48;;;;;;;3.40;1.88;;;23.10;59.10;;;;;;5019410;28;20042;-78
2022/09/11 02:39:25;;;;;;;2.90;1.65;;;23.30;58.60;;;;;;5030530;28;20470;-82
2022/09/11 02:42:09;;;;;;;2.97;1.60;;;23.30;58.70;;;;;;5013682;28;20030;-80
2022/09/11 02:45:02;;;;;;;3.80;1.80;;;23.40;58.60;;;;;;5031621;28;20035;-79
2022/09/11 02:47:53;;;;;;;2.80;1.55;;;23.30;58.50;;;;;;5006692;28;20026;-78
2022/09/11 02:50:31;;;;;;;3.45;1.80;;;23.30;58.60;;;;;;5016864;28;20038;-82
2022/09/11 02:53:06;;;;;;;4.05;1.90;;;23.00;59.30;;;;;;5015096;28;20034;-79
2022/09/11 02:56:27;;;;;;;5.15;2.10;;;23.10;59.60;;;;;;5033008;28;20028;-78
2022/09/11 02:58:57;;;;;;;2.85;1.70;;;23.30;59.20;;;;;;4995040;28;20026;-79
2022/09/11 03:01:23;;;;;;;3.00;1.52;;;23.30;58.90;;;;;;5010836;28;20045;-78
2022/09/11 03:03:49;;;;;;;3.55;1.67;;;23.00;59.10;;;;;;5010672;28;20045;-80
2022/09/11 03:06:18;;;;;;;2.70;1.50;;;22.90;59.40;;;;;;5010659;28;20500;-79
2022/09/11 03:08:44;;;;;;;4.68;1.50;;;23.10;59.30;;;;;;5012017;28;20060;-81
2022/09/11 03:11:10;;;;;;;3.10;1.63;;;22.90;59.40;;;;;;5010714;28;20042;-79
2022/09/11 03:13:36;;;;;;;2.63;1.52;;;22.90;59.60;;;;;;4994018;28;20078;-82
2022/09/11 03:16:06;;;;;;;2.67;1.60;;;22.80;59.20;;;;;;4991912;28;20034;-78
2022/09/11 03:18:33;;;;;;;3.03;1.75;;;22.50;60.40;;;;;;4990234;28;20505;-78
2022/09/11 03:20:59;;;;;;;3.50;1.70;;;22.60;60.00;;;;;;5009692;28;20076;-79
2022/09/11 03:23:25;;;;;;;3.33;1.70;;;23.00;59.30;;;;;;5010458;28;20046;-79
2022/09/11 03:25:51;;;;;;;2.72;1.60;;;23.20;59.10;;;;;;5010292;28;20081;-78
2022/09/11 03:28:17;;;;;;;3.42;1.80;;;23.40;58.50;;;;;;5014168;28;20469;-78
2022/09/11 03:30:42;;;;;;;2.70;1.60;;;23.40;58.60;;;;;;5010085;28;20026;-80
2022/09/11 03:33:08;;;;;;;3.28;1.55;;;23.50;58.50;;;;;;5053545;28;20542;-78
2022/09/11 03:35:34;;;;;;;8.02;1.60;;;23.50;58.40;;;;;;5093080;28;20081;-78
2022/09/11 03:38:00;;;;;;;3.15;1.70;;;23.60;58.00;;;;;;5073790;28;20028;-78
2022/09/11 03:40:26;;;;;;;3.15;1.60;;;23.70;57.80;;;;;;5074434;28;20749;-80
2022/09/11 03:42:51;;;;;;;2.97;1.50;;;23.50;58.20;;;;;;5094253;28;20122;-78
2022/09/11 03:45:18;;;;;;;2.70;1.50;;;23.50;58.10;;;;;;5077841;28;20487;-78
2022/09/11 03:47:44;;;;;;;3.70;1.90;;;23.70;57.90;;;;;;5064326;28;20035;-78
2022/09/11 03:50:11;;;;;;;2.80;1.70;;;23.70;57.60;;;;;;5093956;28;20032;-78
2022/09/11 03:52:36;;;;;;;5.10;1.70;;;23.90;57.50;;;;;;5094563;28;20034;-78
2022/09/11 03:55:04;;;;;;;3.20;1.50;;;23.80;57.30;;;;;;5069897;28;20036;-78
2022/09/11 03:57:35;;;;;;;3.05;1.50;;;23.50;57.50;;;;;;5075703;28;20115;-78
2022/09/11 04:00:02;;;;;;;2.80;1.60;;;23.50;58.00;;;;;;5095129;28;20016;-77
2022/09/11 04:02:28;;;;;;;4.75;1.80;;;23.40;58.00;;;;;;5076532;28;20410;-78
2022/09/11 04:04:54;;;;;;;3.35;1.80;;;23.30;58.00;;;;;;5096446;28;20470;-78
2022/09/11 04:07:20;;;;;;;3.67;1.83;;;23.40;58.00;;;;;;5095690;28;20054;-78
2022/09/11 04:09:45;;;;;;;2.70;1.60;;;23.40;58.20;;;;;;5095615;28;20024;-77
2022/09/11 04:12:11;;;;;;;3.00;1.80;;;23.40;57.90;;;;;;5077356;28;20482;-78
2022/09/11 04:14:37;;;;;;;2.80;1.55;;;23.40;58.10;;;;;;5077385;28;20028;-78
2022/09/11 04:17:03;;;;;;;4.65;1.92;;;23.50;57.90;;;;;;5068809;28;20375;-78
2022/09/11 04:19:31;;;;;;;3.58;1.85;;;23.50;57.70;;;;;;5093456;28;20358;-78
2022/09/11 04:21:57;;;;;;;4.15;1.77;;;23.60;57.30;;;;;;5094661;28;20130;-78
2022/09/11 04:24:22;;;;;;;4.18;1.77;;;23.60;57.70;;;;;;5076440;28;20106;-77
2022/09/11 04:26:48;;;;;;;3.67;1.88;;;23.70;57.50;;;;;;5094497;28;20381;-79
2022/09/11 04:29:16;;;;;;;4.57;1.77;;;23.10;57.90;;;;;;5094804;28;20024;-80
2022/09/11 04:31:42;;;;;;;3.03;1.80;;;22.30;59.70;;;;;;5072204;28;20024;-80
2022/09/11 04:34:10;;;;;;;3.00;1.90;;;21.90;61.00;;;;;;5061927;28;20028;-78
2022/09/11 04:36:35;;;;;;;4.15;1.92;;;22.10;60.90;;;;;;5091740;28;20031;-78
2022/09/11 04:39:01;;;;;;;2.85;1.83;;;22.50;60.30;;;;;;5076736;28;20390;-77
2022/09/11 04:41:27;;;;;;;3.50;1.95;;;22.80;59.30;;;;;;5093658;28;20127;-78
2022/09/11 04:43:59;;;;;;;3.10;2.00;;;22.90;59.50;;;;;;5094667;28;20402;-77
2022/09/11 04:46:25;;;;;;;4.43;1.95;;;23.20;59.00;;;;;;5094519;28;20016;-77
2022/09/11 04:48:58;;;;;;;3.45;1.70;;;23.10;58.90;;;;;;5059945;28;20036;-79
2022/09/11 04:51:32;;;;;;;3.33;1.85;;;22.30;60.70;;;;;;5081171;28;20024;-80
2022/09/11 04:53:58;;;;;;;4.03;1.90;;;22.00;61.80;;;;;;5093809;28;20122;-78
2022/09/11 04:56:30;;;;;;;3.85;1.85;;;22.30;61.70;;;;;;5075612;28;20106;-79
2022/09/11 04:58:58;;;;;;;4.72;1.80;;;22.70;60.30;;;;;;5091088;28;20103;-78
2022/09/11 05:01:26;;;;;;;3.28;1.80;;;23.10;59.60;;;;;;5092621;28;20079;-77
2022/09/11 05:03:52;;;;;;;6.05;1.90;;;23.10;59.40;;;;;;5095026;28;20066;-78
2022/09/11 05:06:18;;;;;;;3.40;1.70;;;23.20;59.30;;;;;;5073645;28;20398;-78
2022/09/11 05:08:45;;;;;;;3.97;1.63;;;23.50;59.00;;;;;;5072007;28;20082;-78
2022/09/11 05:11:13;;;;;;;3.25;1.67;;;23.60;58.20;;;;;;5076819;28;20024;-78
2022/09/11 05:13:39;;;;;;;3.35;2.00;;;23.00;59.70;;;;;;5086436;28;20039;-80
2022/09/11 05:16:10;;;;;;;3.22;1.75;;;23.20;59.60;;;;;;5073749;28;20024;-77
2022/09/11 05:18:38;;;;;;;4.65;1.65;;;23.60;59.40;;;;;;5074241;28;20491;-76
2022/09/11 05:21:15;;;;;;;3.25;1.70;;;23.90;58.60;;;;;;5072286;28;20415;-77
2022/09/11 05:23:45;;;;;;;2.63;1.60;;;24.10;58.30;;;;;;5093269;28;20036;-86
2022/09/11 05:26:16;;;;;;;3.83;2.10;;;24.10;57.70;;;;;;5091160;28;20082;-77
2022/09/11 05:28:42;;;;;;;4.28;1.73;;;23.80;58.80;;;;;;5090274;28;20032;-77
2022/09/11 05:31:14;;;;;;;3.20;1.70;;;24.00;58.90;;;;;;5084544;28;20028;-79
2022/09/11 05:33:40;;;;;;;3.47;1.83;;;24.10;58.40;;;;;;5069631;28;20169;-79
2022/09/11 05:36:06;;;;;;;2.97;1.50;;;24.10;58.50;;;;;;5076514;28;20127;-77
2022/09/11 05:38:37;;;;;;;2.70;1.58;;;24.20;58.30;;;;;;5075156;28;20450;-82
2022/09/11 05:41:05;;;;;;;3.92;1.75;;;24.20;58.40;;;;;;5074309;28;20027;-85
2022/09/11 05:43:32;;;;;;;3.10;1.80;;;24.00;59.10;;;;;;5056153;28;20115;-78
2022/09/11 05:45:58;;;;;;;3.55;1.70;;;24.20;59.00;;;;;;5061455;28;20046;-80
2022/09/11 05:48:27;;;;;;;3.35;1.80;;;24.30;59.10;;;;;;5073765;28;20063;-83
2022/09/11 05:51:01;;;;;;;3.92;1.60;;;24.30;58.50;;;;;;5073755;28;20017;-80
2022/09/11 05:53:31;;;;;;;4.13;1.70;;;24.20;58.80;;;;;;5056278;28;20457;-79
2022/09/11 05:55:59;;;;;;;2.55;1.60;;;24.20;59.00;;;;;;5074670;28;20020;-78
2022/09/11 05:58:29;;;;;;;4.05;1.70;;;24.20;59.10;;;;;;5056710;28;20029;-78
2022/09/11 06:01:11;;;;;;;4.75;1.60;;;24.10;59.00;;;;;;5075712;28;20531;-83
2022/09/11 06:03:38;;;;;;;2.65;1.60;;;24.00;59.20;;;;;;5093193;28;20110;-82
2022/09/11 06:06:06;;;;;;;5.28;1.70;;;23.90;59.50;;;;;;5074168;28;20466;-77
2022/09/11 06:08:33;;;;;;;3.40;1.58;;;23.90;58.90;;;;;;5073751;28;20031;-80
2022/09/11 06:11:00;;;;;;;5.93;1.65;;;24.10;59.10;;;;;;5056847;28;20386;-78
2022/09/11 06:13:31;;;;;;;6.28;1.63;;;24.30;59.00;;;;;;5091338;28;20023;-81
2022/09/11 06:15:57;;;;;;;4.82;1.80;;;24.30;58.70;;;;;;5057415;28;20025;-76
2022/09/11 06:18:23;;;;;;;2.95;1.70;;;24.30;58.60;;;;;;5070779;28;20024;-78
2022/09/11 06:21:00;;;;;;;3.13;1.33;;;24.40;58.20;;;;;;5094066;28;20030;-78
2022/09/11 06:23:25;;;;;;;2.60;1.35;;;24.20;58.50;;;;;;5084199;28;20086;-84
2022/09/11 06:25:53;;;;;;;5.40;1.60;;;24.10;58.80;;;;;;5081556;28;20430;-84
2022/09/11 06:28:22;;;;;;;2.97;1.40;;;24.00;59.20;;;;;;5067611;28;20424;-80
2022/09/11 06:30:51;;;;;;;4.35;2.10;;;24.10;59.30;;;;;;5086706;28;20399;-74
2022/09/11 06:33:20;;;;;;;4.65;1.40;;;24.40;58.70;;;;;;5094146;28;20077;-82
2022/09/11 06:35:59;;;;;;;3.33;1.40;;;24.60;57.90;;;;;;5093773;28;20073;-75
2022/09/11 06:38:26;;;;;;;3.58;1.50;;;24.70;58.20;;;;;;5091650;28;20024;-77
2022/09/11 06:40:53;;;;;;;4.97;1.50;;;24.90;57.80;;;;;;5075274;28;20115;-75
2022/09/11 06:43:19;;;;;;;4.32;1.55;;;25.10;57.40;;;;;;5092076;28;20397;-78
2022/09/11 06:45:47;;;;;;;3.65;1.48;;;25.40;57.00;;;;;;5057301;28;20028;-81
2022/09/11 06:48:13;;;;;;;4.05;1.70;;;25.30;56.50;;;;;;5084814;28;20024;-83
2022/09/11 06:50:45;;;;;;;3.00;1.50;;;25.20;57.50;;;;;;5055389;28;20029;-80
2022/09/11 06:53:13;;;;;;;3.30;1.88;;;25.00;57.50;;;;;;5081361;28;20387;-81
2022/09/11 06:55:39;;;;;;;3.13;1.50;;;25.20;58.00;;;;;;5074959;28;20123;-79
2022/09/11 06:58:06;;;;;;;4.40;1.40;;;25.00;57.50;;;;;;5074498;28;20096;-81
2022/09/11 07:00:33;;;;;;;3.10;1.30;;;24.60;57.70;;;;;;5093286;28;20039;-79
2022/09/11 07:03:00;;;;;;;3.47;1.48;;;24.80;58.10;;;;;;5066398;28;20440;-77
2022/09/11 07:05:26;;;;;;;2.35;1.30;;;25.00;57.80;;;;;;5063646;28;20016;-83
2022/09/11 07:07:52;;;;;;;2.90;1.58;;;24.90;57.80;;;;;;5052710;28;20029;-86
2022/09/11 07:10:18;;;;;;;2.95;1.30;;;25.10;57.30;;;;;;5065106;28;20025;-75
2022/09/11 07:12:44;;;;;;;4.50;1.70;;;25.10;57.60;;;;;;5070435;28;20157;-80
2022/09/11 07:15:10;;;;;;;2.80;1.45;;;25.00;57.80;;;;;;5072447;28;20020;-82
2022/09/11 07:17:36;;;;;;;2.50;1.40;;;24.80;57.40;;;;;;5063431;28;20484;-85
2022/09/11 07:20:07;;;;;;;5.85;1.60;;;24.80;57.60;;;;;;5053004;28;20032;-78
2022/09/11 07:22:34;;;;;;;3.08;1.40;;;24.80;57.80;;;;;;5069267;28;20028;-78
2022/09/11 07:24:59;;;;;;;6.95;1.40;;;24.90;57.70;;;;;;5071767;28;20525;-80
2022/09/11 07:27:30;;;;;;;2.97;1.40;;;25.30;57.20;;;;;;5056693;28;20025;-81
2022/09/11 07:29:56;;;;;;;3.42;1.45;;;25.30;57.00;;;;;;5071626;28;20021;-80
2022/09/11 07:32:22;;;;;;;2.40;1.40;;;24.60;57.70;;;;;;5070208;28;20028;-82
2022/09/11 07:34:48;;;;;;;5.53;1.40;;;24.30;58.70;;;;;;5072254;28;20039;-80
2022/09/11 07:37:14;;;;;;;3.53;1.48;;;24.70;58.80;;;;;;5070664;28;20027;-81
2022/09/11 07:39:40;;;;;;;2.85;1.50;;;25.10;58.50;;;;;;5072545;28;20032;-78
2022/09/11 07:42:06;;;;;;;6.45;2.35;;;25.20;57.60;;;;;;5068717;28;20045;-78
2022/09/11 07:44:33;;;;;;;2.83;1.60;;;24.90;58.10;;;;;;5064067;28;20029;-84
2022/09/11 07:46:59;;;;;;;2.80;1.60;;;24.90;58.10;;;;;;5051955;28;20028;-80
2022/09/11 07:49:26;;;;;;;3.88;1.77;;;25.30;57.60;;;;;;5054415;28;20021;-82
2022/09/11 07:51:53;;;;;;;3.42;1.40;;;25.20;57.10;;;;;;5071351;28;20036;-80
2022/09/11 07:54:19;;;;;;;6.40;1.63;;;25.20;57.60;;;;;;4714684;28;9999702;-79
2022/09/11 07:56:54;;;;;;;3.65;1.80;;;25.50;57.30;;;;;;5051321;28;20040;-82
2022/09/11 07:59:21;;;;;;;5.05;1.75;;;25.50;57.80;;;;;;5049561;28;20111;-74
2022/09/11 08:01:49;;;;;;;4.25;1.95;;;25.40;58.00;;;;;;5067571;28;20460;-80
2022/09/11 08:04:14;;;;;;;5.43;1.60;;;25.50;57.00;;;;;;5058415;28;20441;-78
2022/09/11 08:06:41;;;;;;;3.58;1.60;;;25.50;57.30;;;;;;5066947;28;20470;-86
2022/09/11 08:09:09;;;;;;;2.83;1.60;;;25.50;57.30;;;;;;5055446;28;20031;-78
2022/09/11 08:11:45;;;;;;;2.80;1.58;;;25.50;57.60;;;;;;5055011;28;20099;-83
2022/09/11 08:14:16;;;;;;;4.03;1.60;;;25.50;57.80;;;;;;5055888;28;20021;-80
2022/09/11 08:16:42;;;;;;;;;;;25.80;57.20;;;;;;5057244;28;20079;-79
2022/09/11 08:19:13;;;;;;;5.13;1.67;;;25.80;57.00;;;;;;5069242;28;20438;-86
2022/09/11 08:21:39;;;;;;;3.05;1.60;;;25.90;57.40;;;;;;5057317;28;20031;-80
2022/09/11 08:24:06;;;;;;;4.75;2.20;;;25.70;57.00;;;;;;5049345;28;20045;-87
2022/09/11 08:26:35;;;;;;;3.65;2.00;;;25.60;57.50;;;;;;5062854;28;20023;-80
2022/09/11 08:29:00;;;;;;;3.78;2.25;;;25.50;57.40;;;;;;5055263;28;20029;-78
2022/09/11 08:31:27;;;;;;;3.50;2.00;;;25.70;57.80;;;;;;5052813;28;20020;-83
2022/09/11 08:33:54;;;;;;;2.90;1.88;;;25.90;57.20;;;;;;5066545;28;20028;-83
2022/09/11 08:36:21;;;;;;;2.92;1.80;;;26.00;57.10;;;;;;5066525;28;20079;-77
2022/09/11 08:38:47;;;;;;;4.03;1.80;;;25.80;57.20;;;;;;5065386;28;20123;-82
2022/09/11 08:41:35;;;;;;;3.63;1.85;;;25.80;57.80;;;;;;5066773;28;20036;-81
2022/09/11 08:44:09;;;;;;;4.20;2.03;;;25.60;57.20;;;;;;5054991;28;20083;-78
2022/09/11 08:47:09;;;;;;;4.13;2.00;;;25.60;58.30;;;;;;5068087;28;20566;-76
2022/09/11 08:49:45;;;;;;;4.85;1.80;;;25.80;57.90;;;;;;5009570;28;20379;-84
2022/09/11 08:52:13;;;;;;;3.65;1.80;;;26.20;57.90;;;;;;5010393;28;20065;-85
2022/09/11 08:54:41;;;;;;;3.60;1.90;;;26.50;57.30;;;;;;5010700;28;20076;-84
2022/09/11 08:57:36;;;;;;;4.50;1.70;;;26.90;57.30;;;;;;5011129;28;20464;-83
2022/09/11 09:00:17;;;;;;;10.38;9.48;;;27.00;56.80;;;;;;4994821;28;20875;-86
2022/09/11 09:03:07;;;;;;;;;;;26.70;57.00;;;;;;4993592;28;20066;-77
2022/09/11 09:05:53;;;;;;;5.78;1.80;;;26.60;57.10;;;;;;5008414;28;20013;-78
2022/09/11 09:08:34;;;;;;;3.75;1.90;;;26.90;57.50;;;;;;5010924;28;20030;-77
2022/09/11 09:11:12;;;;;;;9.13;2.00;;;27.00;56.20;;;;;;5010984;28;20030;-80
2022/09/11 09:13:57;;;;;;;3.25;1.50;;;27.20;56.60;;;;;;5010597;28;20136;-76
2022/09/11 09:16:34;;;;;;;6.05;1.90;;;27.30;56.60;;;;;;4991478;28;20027;-77
2022/09/11 09:19:25;;;;;;;4.25;1.80;;;27.60;56.20;;;;;;4996005;28;20073;-80
2022/09/11 09:22:06;;;;;;;2.83;1.70;;;27.80;55.70;;;;;;5009793;28;20037;-81
2022/09/11 09:24:41;;;;;;;4.72;1.55;;;27.90;56.20;;;;;;5008298;28;20033;-85
2022/09/11 09:27:16;;;;;;;5.45;1.60;;;27.90;56.10;;;;;;5061541;28;20068;-79
2022/09/11 09:29:44;;;;;;;3.00;1.70;;;28.00;55.70;;;;;;5067068;28;20093;-76
2022/09/11 09:32:19;;;;;;;3.88;1.60;;;27.80;55.00;;;;;;5050486;28;20379;-77
2022/09/11 09:34:47;;;;;;;4.55;1.60;;;27.50;55.60;;;;;;5050450;28;20025;-81
2022/09/11 09:37:20;;;;;;;3.00;1.45;;;27.70;56.30;;;;;;5054581;28;20040;-77
2022/09/11 09:39:46;;;;;;;2.78;1.58;;;28.00;55.10;;;;;;5070346;28;20082;-76
2022/09/11 09:42:39;;;;;;;3.60;1.80;;;28.40;55.00;;;;;;5070778;28;20043;-77
2022/09/11 09:45:47;;;;;;;3.60;1.50;;;28.60;55.00;;;;;;5071234;28;20043;-76
2022/09/11 09:48:13;;;;;;;2.42;1.30;;;28.90;55.10;;;;;;5065011;28;20075;-79
2022/09/11 09:50:41;;;;;;;9.55;1.52;;;29.20;54.40;;;;;;5070369;28;20082;-85
2022/09/11 09:53:34;;;;;;;2.90;1.40;;;28.80;53.60;;;;;;5066252;28;20078;-80
2022/09/11 09:56:03;;;;;;;3.55;1.40;;;28.60;53.80;;;;;;5070885;28;20474;-86
2022/09/11 09:58:37;;;;;;;3.78;1.48;;;28.30;54.20;;;;;;4720611;28;10000243;-80
2022/09/11 10:01:30;;;;;;;6.43;1.38;;;28.20;53.90;;;;;;5070367;28;20411;-81
2022/09/11 10:04:11;;;;;;;2.53;1.20;;;28.40;53.50;;;;;;5072405;28;20077;-81
2022/09/11 10:06:37;;;;;;;2.13;1.30;;;29.10;53.70;;;;;;5071513;28;20036;-81
2022/09/11 10:09:03;;;;;;;2.28;1.30;;;29.50;52.40;;;;;;5071995;28;20387;-82
2022/09/11 10:11:29;;;;;;;6.53;1.30;;;29.60;52.20;;;;;;5072291;28;20038;-78
2022/09/11 10:13:56;;;;;;;2.05;1.20;;;29.50;51.30;;;;;;5062509;28;20033;-87
2022/09/11 10:16:26;;;;;;;3.97;1.38;;;28.60;51.60;;;;;;5063366;28;20025;-84
2022/09/11 10:19:06;;;;;;;3.05;1.40;;;27.90;53.00;;;;;;5066330;28;20483;-86
2022/09/11 10:21:32;;;;;;;2.37;1.40;;;27.80;52.50;;;;;;5069700;28;20078;-79
2022/09/11 10:24:22;;;;;;;2.97;1.50;;;27.70;53.10;;;;;;5071290;28;20045;-84
2022/09/11 10:26:51;;;;;;;2.55;1.20;;;27.70;53.00;;;;;;5063061;28;20051;-84
2022/09/11 10:29:31;;;;;;;3.60;1.40;;;27.80;52.80;;;;;;5073588;28;20191;-87
2022/09/11 10:32:01;;;;;;;3.00;1.37;;;27.40;53.00;;;;;;5073939;28;20139;-83
2022/09/11 10:34:33;;;;;;;2.47;1.30;;;27.40;53.10;;;;;;5073453;28;20048;-77
2022/09/11 10:37:02;;;;;;;4.38;1.50;;;27.50;53.10;;;;;;5073368;28;20024;-80
2022/09/11 10:39:31;;;;;;;2.35;1.30;;;27.20;53.30;;;;;;5073681;28;20032;-87
2022/09/11 10:42:06;;;;;;;5.07;1.30;;;27.10;53.50;;;;;;5073432;28;20020;-78
2022/09/11 10:44:32;;;;;;;1.88;1.20;;;27.20;53.30;;;;;;5073352;28;20025;-78
2022/09/11 10:47:02;;;;;;;3.60;1.38;;;27.80;53.70;;;;;;5071884;28;20032;-86
2022/09/11 10:49:28;;;;;;;5.07;1.52;;;28.30;53.10;;;;;;5073193;28;20111;-83
2022/09/11 10:52:21;;;;;;;2.47;1.30;;;28.30;52.20;;;;;;5073744;28;20025;-80
2022/09/11 10:54:57;;;;;;;3.20;1.50;;;27.90;51.80;;;;;;5070305;28;20376;-78
2022/09/11 10:57:25;;;;;;;5.10;1.40;;;27.70;53.30;;;;;;5073371;28;20158;-77
2022/09/11 11:00:19;;;;;;;4.55;1.50;;;27.70;52.50;;;;;;5072925;28;20024;-77
2022/09/11 11:03:04;;;;;;;5.30;1.55;;;27.80;53.30;;;;;;5071540;28;20049;-85
2022/09/11 11:05:39;;;;;;;2.33;1.20;;;28.10;53.00;;;;;;5071899;28;20021;-80
2022/09/11 11:08:14;;;;;;;2.67;1.40;;;28.10;53.70;;;;;;5072996;28;20390;-80
2022/09/11 11:11:03;;;;;;;2.78;1.40;;;28.50;53.00;;;;;;5071811;28;20368;-82
2022/09/11 11:14:06;;;;;;;3.03;1.30;;;28.60;52.40;;;;;;5072939;28;20078;-79
2022/09/11 11:16:55;;;;;;;2.53;1.45;;;28.70;52.30;;;;;;5071771;28;20029;-83
2022/09/11 11:19:47;;;;;;;2.40;1.38;;;28.50;52.60;;;;;;5072801;28;20052;-79
2022/09/11 11:22:25;;;;;;;2.90;1.40;;;28.10;54.30;;;;;;5071564;28;20538;-78
2022/09/11 11:25:13;;;;;;;3.17;1.40;;;28.30;53.10;;;;;;5071940;28;20031;-80
2022/09/11 11:27:43;;;;;;;2.60;1.30;;;28.20;53.00;;;;;;5072557;28;20491;-82
2022/09/11 11:30:18;;;;;;;2.67;1.35;;;28.20;53.40;;;;;;5071801;28;20032;-76
2022/09/11 11:33:21;;;;;;;2.00;1.30;;;28.10;52.90;;;;;;5072738;28;20111;-89
2022/09/11 11:36:06;;;;;;;3.45;1.60;;;27.80;53.60;;;;;;5071694;28;20025;-83
2022/09/11 11:38:40;;;;;;;5.35;1.95;;;27.90;53.40;;;;;;5073029;28;20483;-77
2022/09/11 11:41:13;;;;;;;3.17;1.58;;;28.00;53.10;;;;;;5072629;28;20382;-81
2022/09/11 11:43:42;;;;;;;2.85;1.33;;;28.10;53.30;;;;;;5071759;28;20078;-84
2022/09/11 11:46:10;;;;;;;4.68;1.45;;;27.90;52.80;;;;;;5071698;28;20032;-81
2022/09/11 11:48:50;;;;;;;4.68;1.50;;;27.60;53.30;;;;;;5072905;28;20025;-88
2022/09/11 11:51:18;;;;;;;5.45;1.92;;;27.40;53.80;;;;;;5072751;28;20024;-82
2022/09/11 11:54:16;;;;;;;5.82;2.30;;;27.20;54.90;;;;;;5071092;28;20028;-87
2022/09/11 11:56:44;;;;;;;3.67;1.50;;;27.20;54.70;;;;;;4367884;28;10000579;-75
2022/09/11 11:59:29;;;;;;;5.82;4.18;;;27.40;54.80;;;;;;5069594;28;20028;-78
2022/09/11 12:02:02;;;;;;;3.75;1.70;;;27.90;54.10;;;;;;5072776;28;20064;-80
2022/09/11 12:04:49;;;;;;;5.50;1.80;;;27.90;53.20;;;;;;5076652;28;20071;-83
2022/09/11 12:07:29;;;;;;;2.72;1.50;;;27.80;53.70;;;;;;5075493;28;20025;-86
2022/09/11 12:09:57;;;;;;;2.80;1.42;;;27.80;53.10;;;;;;5075311;28;20498;-79
2022/09/11 12:12:26;;;;;;;4.20;1.50;;;27.50;53.20;;;;;;5074951;28;20089;-77
2022/09/11 12:14:55;;;;;;;7.05;1.77;;;27.70;53.70;;;;;;5076405;28;20019;-89
2022/09/11 12:17:27;;;;;;;11.52;1.95;;;27.60;57.30;;;;;;5075132;28;20024;-78
2022/09/11 12:20:15;;;;;;;10.88;9.80;;;27.00;59.20;;;;;;5076217;28;20059;-84
2022/09/11 12:22:48;;;;;;;4.68;1.80;;;26.80;61.00;;;;;;5076274;28;20391;-81
2022/09/11 12:25:20;;;;;;;6.13;1.90;;;26.90;61.20;;;;;;5075881;28;20095;-80
2022/09/11 12:27:52;;;;;;;5.07;1.90;;;27.10;60.50;;;;;;5076204;28;20052;-85
2022/09/11 12:30:25;;;;;;;5.75;1.80;;;27.30;60.20;;;;;;5075054;28;20078;-87
2022/09/11 12:32:53;;;;;;;4.10;1.70;;;27.30;60.30;;;;;;5074900;28;20494;-82
2022/09/11 12:35:19;;;;;;;3.42;1.50;;;27.30;60.40;;;;;;5074712;28;20023;-80
2022/09/11 12:38:00;;;;;;;4.15;1.70;;;26.90;59.70;;;;;;5075753;28;20020;-84
2022/09/11 12:40:29;;;;;;;4.38;1.50;;;26.50;61.00;;;;;;5074421;28;20091;-83
2022/09/11 12:42:58;;;;;;;5.47;1.55;;;26.40;59.90;;;;;;5075765;28;20506;-79
2022/09/11 12:45:33;;;;;;;3.08;1.50;;;26.60;60.30;;;;;;5075589;28;20028;-86
2022/09/11 12:48:08;;;;;;;3.40;1.70;;;26.20;59.10;;;;;;5075762;28;20032;-80
2022/09/11 12:50:34;;;;;;;3.97;1.70;;;26.20;60.90;;;;;;5074806;28;20029;-85
2022/09/11 12:53:03;;;;;;;2.92;1.48;;;26.40;60.20;;;;;;5075590;28;20491;-78
2022/09/11 12:55:55;;;;;;;3.90;1.70;;;26.50;60.20;;;;;;5075729;28;20028;-78
2022/09/11 12:58:27;;;;;;;5.05;1.67;;;26.70;61.20;;;;;;5064650;28;20403;-79
2022/09/11 13:01:08;;;;;;;6.18;1.60;;;26.90;60.60;;;;;;5077526;28;20052;-78
2022/09/11 13:03:36;;;;;;;3.63;1.40;;;27.40;59.80;;;;;;5077924;28;20089;-87
2022/09/11 13:06:07;;;;;;;2.20;1.27;;;27.50;56.20;;;;;;5077795;28;20527;-93
2022/09/11 13:08:37;;;;;;;6.28;1.40;;;27.30;57.90;;;;;;5095672;28;20099;-79
2022/09/11 13:11:24;;;;;;;;;;;27.10;56.20;;;;;;5095543;28;20028;-88
2022/09/11 13:13:50;;;;;;;2.95;1.42;;;27.10;57.00;;;;;;5077400;28;19903;-86